createdAt,value
2017-12-26T12:24:01.864Z,7.1
2017-12-26T12:34:17.175Z,7.5
2017-12-26T12:44:32.591Z,7.4
2017-12-26T12:54:47.059Z,7.6
2017-12-26T13:05:02.010Z,7.4
2017-12-26T13:15:16.536Z,7.3
2017-12-26T13:25:31.241Z,7.3
2017-12-26T13:35:45.697Z,7.4
2017-12-26T13:46:00.359Z,7.4
2017-12-26T13:56:14.781Z,7.6
2017-12-26T14:06:29.185Z,7.4
2017-12-26T14:16:43.694Z,7.3
2017-12-26T14:26:57.756Z,7.3
2017-12-26T14:37:11.708Z,7.3
2017-12-26T14:47:26.367Z,7.3
2017-12-26T14:57:41.758Z,7.3
2017-12-26T15:07:55.978Z,7.3
2017-12-26T15:18:10.703Z,7.1
2017-12-26T15:28:25.139Z,6.9
2017-12-26T15:38:40.647Z,7
2017-12-26T15:48:54.890Z,6.6
2017-12-26T15:59:10.564Z,6.4
2017-12-26T16:09:24.731Z,6.5
2017-12-26T16:19:38.706Z,7
2017-12-26T16:29:52.892Z,7
2017-12-26T16:40:08.347Z,7.1
2017-12-26T16:50:23.600Z,6.7
2017-12-26T17:00:37.278Z,6.8
2017-12-26T17:10:51.278Z,6.7
2017-12-26T17:21:06.801Z,6.5
2017-12-26T17:31:21.821Z,6.2
2017-12-26T17:41:37.327Z,6.2
2017-12-26T17:51:52.345Z,6.1
2017-12-26T18:02:06.078Z,6
2017-12-26T18:12:20.120Z,6
2017-12-26T18:22:34.750Z,5.9
2017-12-26T18:32:50.151Z,5.9
2017-12-26T18:43:05.746Z,6
2017-12-26T18:53:19.655Z,6.1
2017-12-26T19:03:34.643Z,6.4
2017-12-26T19:13:49.341Z,6.3
2017-12-26T19:24:04.943Z,6.4
2017-12-26T19:34:19.066Z,6.3
2017-12-26T19:44:33.019Z,6.5
2017-12-26T19:54:47.192Z,6.4
2017-12-26T20:05:01.586Z,6.5
2017-12-26T20:15:16.685Z,6.4
2017-12-26T20:25:31.316Z,6.3
2017-12-26T20:35:46.569Z,6.2
2017-12-26T20:46:01.676Z,5.9
2017-12-26T20:56:17.140Z,5.7
2017-12-26T21:06:31.270Z,5.5
2017-12-26T21:16:45.110Z,5.4
2017-12-26T21:26:59.872Z,5.3
2017-12-26T21:37:15.015Z,5
2017-12-26T21:47:29.159Z,5
2017-12-26T21:57:42.975Z,4.8
2017-12-26T22:07:57.626Z,4.6
2017-12-26T22:18:12.339Z,4.6
2017-12-26T22:28:27.017Z,4.8
2017-12-26T22:38:41.264Z,4.6
2017-12-26T22:48:55.933Z,4.7
2017-12-26T22:59:10.902Z,4.9
2017-12-26T23:09:24.876Z,4.8
2017-12-26T23:19:39.879Z,5
2017-12-26T23:29:53.720Z,5
2017-12-26T23:40:08.317Z,5.1
2017-12-26T23:50:23.166Z,5.2
